sensor_id;sensor_type;location;lat;lon;timestamp;P1;durP1;ratioP1;P2;durP2;ratioP2
22780;SDS011;11557;50.884;4.322;2022-09-09T00:02:19;3.95;;;1.75;;
22780;SDS011;11557;50.884;4.322;2022-09-09T00:04:51;5.97;;;1.60;;
22780;SDS011;11557;50.884;4.322;2022-09-09T00:23:25;4.88;;;1.60;;
22780;SDS011;11557;50.884;4.322;2022-09-09T00:28:52;2.78;;;1.33;;
22780;SDS011;11557;50.884;4.322;2022-09-09T00:31:21;6.25;;;1.85;;
22780;SDS011;11557;50.884;4.322;2022-09-09T00:33:51;7.15;;;1.55;;
22780;SDS011;11557;50.884;4.322;2022-09-09T00:36:20;5.50;;;1.38;;
22780;SDS011;11557;50.884;4.322;2022-09-09T00:38:49;4.15;;;1.50;;
22780;SDS011;11557;50.884;4.322;2022-09-09T00:44:14;3.97;;;1.50;;
22780;SDS011;11557;50.884;4.322;2022-09-09T00:49:31;6.82;;;1.83;;
22780;SDS011;11557;50.884;4.322;2022-09-09T00:52:19;3.72;;;1.60;;
22780;SDS011;11557;50.884;4.322;2022-09-09T00:57:40;5.78;;;1.52;;
22780;SDS011;11557;50.884;4.322;2022-09-09T01:00:17;4.53;;;1.30;;
22780;SDS011;11557;50.884;4.322;2022-09-09T01:08:00;8.68;;;1.95;;
22780;SDS011;11557;50.884;4.322;2022-09-09T01:13:28;9.63;;;1.80;;
22780;SDS011;11557;50.884;4.322;2022-09-09T01:15:59;5.75;;;1.48;;
22780;SDS011;11557;50.884;4.322;2022-09-09T01:18:32;3.75;;;1.50;;
22780;SDS011;11557;50.884;4.322;2022-09-09T01:26:45;3.70;;;1.48;;
22780;SDS011;11557;50.884;4.322;2022-09-09T01:29:13;4.82;;;1.23;;
22780;SDS011;11557;50.884;4.322;2022-09-09T01:31:42;8.18;;;1.40;;
22780;SDS011;11557;50.884;4.322;2022-09-09T01:34:17;5.15;;;1.50;;
22780;SDS011;11557;50.884;4.322;2022-09-09T01:39:18;7.47;;;1.63;;
22780;SDS011;11557;50.884;4.322;2022-09-09T01:41:45;5.28;;;1.35;;
22780;SDS011;11557;50.884;4.322;2022-09-09T01:44:10;7.35;;;1.55;;
22780;SDS011;11557;50.884;4.322;2022-09-09T01:46:37;5.28;;;1.48;;
22780;SDS011;11557;50.884;4.322;2022-09-09T01:49:03;2.58;;;1.10;;
22780;SDS011;11557;50.884;4.322;2022-09-09T01:51:32;5.05;;;1.42;;
22780;SDS011;11557;50.884;4.322;2022-09-09T01:53:58;5.28;;;2.17;;
22780;SDS011;11557;50.884;4.322;2022-09-09T02:01:37;3.05;;;1.52;;
22780;SDS011;11557;50.884;4.322;2022-09-09T02:04:14;9.15;;;1.85;;
22780;SDS011;11557;50.884;4.322;2022-09-09T02:06:48;7.70;;;1.80;;
22780;SDS011;11557;50.884;4.322;2022-09-09T02:09:19;5.78;;;1.65;;
22780;SDS011;11557;50.884;4.322;2022-09-09T02:11:49;5.10;;;1.92;;
22780;SDS011;11557;50.884;4.322;2022-09-09T02:14:22;11.52;;;2.00;;
22780;SDS011;11557;50.884;4.322;2022-09-09T02:17:09;9.85;;;2.35;;
22780;SDS011;11557;50.884;4.322;2022-09-09T02:19:37;10.52;;;2.38;;
22780;SDS011;11557;50.884;4.322;2022-09-09T02:22:11;9.20;;;2.00;;
22780;SDS011;11557;50.884;4.322;2022-09-09T02:24:38;6.72;;;2.05;;
22780;SDS011;11557;50.884;4.322;2022-09-09T02:27:05;6.63;;;1.92;;
22780;SDS011;11557;50.884;4.322;2022-09-09T02:29:38;7.53;;;2.00;;
22780;SDS011;11557;50.884;4.322;2022-09-09T02:32:07;10.25;;;2.10;;
22780;SDS011;11557;50.884;4.322;2022-09-09T02:34:39;9.75;;;2.10;;
22780;SDS011;11557;50.884;4.322;2022-09-09T02:37:10;9.80;;;2.22;;
22780;SDS011;11557;50.884;4.322;2022-09-09T02:39:37;12.45;;;2.25;;
22780;SDS011;11557;50.884;4.322;2022-09-09T02:42:04;9.55;;;1.77;;
22780;SDS011;11557;50.884;4.322;2022-09-09T02:44:30;11.77;;;2.58;;
22780;SDS011;11557;50.884;4.322;2022-09-09T02:52:18;9.80;;;2.40;;
22780;SDS011;11557;50.884;4.322;2022-09-09T02:54:50;11.10;;;2.47;;
22780;SDS011;11557;50.884;4.322;2022-09-09T02:57:25;9.25;;;2.17;;
22780;SDS011;11557;50.884;4.322;2022-09-09T02:59:56;12.88;;;2.40;;
22780;SDS011;11557;50.884;4.322;2022-09-09T03:02:26;7.97;;;1.98;;
22780;SDS011;11557;50.884;4.322;2022-09-09T03:04:52;7.57;;;1.95;;
22780;SDS011;11557;50.884;4.322;2022-09-09T03:07:18;8.90;;;2.40;;
22780;SDS011;11557;50.884;4.322;2022-09-09T03:09:44;7.82;;;1.92;;
22780;SDS011;11557;50.884;4.322;2022-09-09T03:12:10;8.95;;;2.38;;
22780;SDS011;11557;50.884;4.322;2022-09-09T03:14:36;11.40;;;2.50;;
22780;SDS011;11557;50.884;4.322;2022-09-09T03:17:03;16.70;;;2.85;;
22780;SDS011;11557;50.884;4.322;2022-09-09T03:19:30;9.82;;;2.25;;
22780;SDS011;11557;50.884;4.322;2022-09-09T03:21:56;7.22;;;1.67;;
22780;SDS011;11557;50.884;4.322;2022-09-09T03:24:23;6.30;;;2.03;;
22780;SDS011;11557;50.884;4.322;2022-09-09T03:26:49;10.23;;;2.75;;
22780;SDS011;11557;50.884;4.322;2022-09-09T03:29:15;8.10;;;2.35;;
22780;SDS011;11557;50.884;4.322;2022-09-09T03:31:43;9.75;;;2.13;;
22780;SDS011;11557;50.884;4.322;2022-09-09T03:34:09;10.13;;;2.22;;
22780;SDS011;11557;50.884;4.322;2022-09-09T03:36:35;10.73;;;2.50;;
22780;SDS011;11557;50.884;4.322;2022-09-09T03:39:01;13.40;;;2.28;;
22780;SDS011;11557;50.884;4.322;2022-09-09T03:41:28;10.20;;;2.20;;
22780;SDS011;11557;50.884;4.322;2022-09-09T03:43:54;12.38;;;2.58;;
22780;SDS011;11557;50.884;4.322;2022-09-09T03:46:21;9.63;;;2.17;;
22780;SDS011;11557;50.884;4.322;2022-09-09T03:48:48;11.45;;;2.47;;
22780;SDS011;11557;50.884;4.322;2022-09-09T03:51:14;10.48;;;2.13;;
22780;SDS011;11557;50.884;4.322;2022-09-09T03:53:41;9.60;;;2.67;;
22780;SDS011;11557;50.884;4.322;2022-09-09T03:56:06;6.75;;;2.40;;
22780;SDS011;11557;50.884;4.322;2022-09-09T03:58:33;8.73;;;2.55;;
22780;SDS011;11557;50.884;4.322;2022-09-09T04:01:00;11.63;;;3.55;;
22780;SDS011;11557;50.884;4.322;2022-09-09T04:03:28;11.25;;;2.55;;
22780;SDS011;11557;50.884;4.322;2022-09-09T04:05:55;10.38;;;2.63;;
22780;SDS011;11557;50.884;4.322;2022-09-09T04:08:22;10.25;;;2.55;;
22780;SDS011;11557;50.884;4.322;2022-09-09T04:10:50;17.17;;;2.67;;
22780;SDS011;11557;50.884;4.322;2022-09-09T04:13:17;12.90;;;3.47;;
22780;SDS011;11557;50.884;4.322;2022-09-09T04:15:55;14.57;;;2.92;;
22780;SDS011;11557;50.884;4.322;2022-09-09T04:18:22;13.65;;;2.72;;
22780;SDS011;11557;50.884;4.322;2022-09-09T04:20:49;10.52;;;2.10;;
22780;SDS011;11557;50.884;4.322;2022-09-09T04:23:16;12.60;;;2.53;;
22780;SDS011;11557;50.884;4.322;2022-09-09T04:25:49;15.70;;;2.45;;
22780;SDS011;11557;50.884;4.322;2022-09-09T04:28:17;7.50;;;2.20;;
22780;SDS011;11557;50.884;4.322;2022-09-09T04:30:52;9.70;;;2.45;;
22780;SDS011;11557;50.884;4.322;2022-09-09T04:33:18;11.82;;;2.30;;
22780;SDS011;11557;50.884;4.322;2022-09-09T04:35:48;12.18;;;2.60;;
22780;SDS011;11557;50.884;4.322;2022-09-09T04:38:15;10.75;;;2.65;;
22780;SDS011;11557;50.884;4.322;2022-09-09T04:40:43;6.45;;;2.45;;
22780;SDS011;11557;50.884;4.322;2022-09-09T04:43:12;13.32;;;2.97;;
22780;SDS011;11557;50.884;4.322;2022-09-09T04:45:39;10.93;;;2.80;;
22780;SDS011;11557;50.884;4.322;2022-09-09T04:48:05;9.77;;;2.63;;
22780;SDS011;11557;50.884;4.322;2022-09-09T04:50:34;11.75;;;2.70;;
22780;SDS011;11557;50.884;4.322;2022-09-09T04:53:01;12.38;;;2.60;;
22780;SDS011;11557;50.884;4.322;2022-09-09T04:55:27;14.45;;;3.08;;
22780;SDS011;11557;50.884;4.322;2022-09-09T04:57:53;17.70;;;3.63;;
22780;SDS011;11557;50.884;4.322;2022-09-09T05:00:19;10.23;;;2.70;;
22780;SDS011;11557;50.884;4.322;2022-09-09T05:02:44;9.93;;;2.80;;
22780;SDS011;11557;50.884;4.322;2022-09-09T05:05:11;13.63;;;2.97;;
22780;SDS011;11557;50.884;4.322;2022-09-09T05:07:37;10.00;;;3.00;;
22780;SDS011;11557;50.884;4.322;2022-09-09T05:10:02;15.77;;;3.47;;
22780;SDS011;11557;50.884;4.322;2022-09-09T05:12:30;14.00;;;3.63;;
22780;SDS011;11557;50.884;4.322;2022-09-09T05:14:56;12.73;;;3.60;;
22780;SDS011;11557;50.884;4.322;2022-09-09T05:17:21;14.95;;;3.10;;
22780;SDS011;11557;50.884;4.322;2022-09-09T05:19:48;13.77;;;3.33;;
22780;SDS011;11557;50.884;4.322;2022-09-09T05:22:17;8.95;;;2.83;;
22780;SDS011;11557;50.884;4.322;2022-09-09T05:24:49;16.70;;;3.30;;
22780;SDS011;11557;50.884;4.322;2022-09-09T05:27:18;15.88;;;3.30;;
22780;SDS011;11557;50.884;4.322;2022-09-09T05:29:44;11.27;;;2.90;;
22780;SDS011;11557;50.884;4.322;2022-09-09T05:32:10;14.80;;;3.25;;
22780;SDS011;11557;50.884;4.322;2022-09-09T05:34:36;11.38;;;3.22;;
22780;SDS011;11557;50.884;4.322;2022-09-09T05:37:02;10.45;;;3.30;;
22780;SDS011;11557;50.884;4.322;2022-09-09T05:39:29;19.50;;;3.53;;
22780;SDS011;11557;50.884;4.322;2022-09-09T05:41:55;18.70;;;3.42;;
22780;SDS011;11557;50.884;4.322;2022-09-09T05:44:20;13.10;;;3.38;;
22780;SDS011;11557;50.884;4.322;2022-09-09T05:46:48;16.17;;;3.45;;
22780;SDS011;11557;50.884;4.322;2022-09-09T05:49:14;12.30;;;3.03;;
22780;SDS011;11557;50.884;4.322;2022-09-09T05:51:40;14.45;;;3.00;;
22780;SDS011;11557;50.884;4.322;2022-09-09T05:54:07;16.48;;;2.78;;
22780;SDS011;11557;50.884;4.322;2022-09-09T05:56:33;10.18;;;2.85;;
22780;SDS011;11557;50.884;4.322;2022-09-09T05:58:59;11.23;;;3.38;;
22780;SDS011;11557;50.884;4.322;2022-09-09T06:01:29;9.23;;;3.13;;
22780;SDS011;11557;50.884;4.322;2022-09-09T06:03:56;15.80;;;2.97;;
22780;SDS011;11557;50.884;4.322;2022-09-09T06:06:22;12.40;;;2.95;;
22780;SDS011;11557;50.884;4.322;2022-09-09T06:08:51;13.68;;;3.10;;
22780;SDS011;11557;50.884;4.322;2022-09-09T06:11:19;13.57;;;2.97;;
22780;SDS011;11557;50.884;4.322;2022-09-09T06:13:46;14.57;;;3.10;;
22780;SDS011;11557;50.884;4.322;2022-09-09T06:16:16;17.55;;;3.03;;
22780;SDS011;11557;50.884;4.322;2022-09-09T06:18:43;19.98;;;3.03;;
22780;SDS011;11557;50.884;4.322;2022-09-09T06:21:15;12.43;;;2.80;;
22780;SDS011;11557;50.884;4.322;2022-09-09T06:23:45;18.38;;;2.95;;
22780;SDS011;11557;50.884;4.322;2022-09-09T06:26:14;11.63;;;2.17;;
22780;SDS011;11557;50.884;4.322;2022-09-09T06:28:44;11.07;;;2.40;;
22780;SDS011;11557;50.884;4.322;2022-09-09T06:31:13;13.18;;;2.88;;
22780;SDS011;11557;50.884;4.322;2022-09-09T06:33:40;8.98;;;2.47;;
22780;SDS011;11557;50.884;4.322;2022-09-09T06:36:10;12.02;;;2.33;;
22780;SDS011;11557;50.884;4.322;2022-09-09T06:38:40;12.85;;;2.72;;
22780;SDS011;11557;50.884;4.322;2022-09-09T06:41:07;12.88;;;3.05;;
22780;SDS011;11557;50.884;4.322;2022-09-09T06:43:34;11.52;;;2.53;;
22780;SDS011;11557;50.884;4.322;2022-09-09T06:48:34;12.50;;;3.25;;
22780;SDS011;11557;50.884;4.322;2022-09-09T06:51:02;13.63;;;3.53;;
22780;SDS011;11557;50.884;4.322;2022-09-09T06:53:36;11.07;;;2.85;;
22780;SDS011;11557;50.884;4.322;2022-09-09T06:58:34;15.52;;;2.50;;
22780;SDS011;11557;50.884;4.322;2022-09-09T07:01:10;12.02;;;2.72;;
22780;SDS011;11557;50.884;4.322;2022-09-09T07:03:38;13.93;;;2.78;;
22780;SDS011;11557;50.884;4.322;2022-09-09T07:06:04;11.38;;;3.00;;
22780;SDS011;11557;50.884;4.322;2022-09-09T07:08:31;18.15;;;3.22;;
22780;SDS011;11557;50.884;4.322;2022-09-09T07:11:04;11.10;;;2.45;;
22780;SDS011;11557;50.884;4.322;2022-09-09T07:13:31;15.50;;;2.75;;
22780;SDS011;11557;50.884;4.322;2022-09-09T07:16:03;14.25;;;2.65;;
22780;SDS011;11557;50.884;4.322;2022-09-09T07:18:34;12.55;;;2.85;;
22780;SDS011;11557;50.884;4.322;2022-09-09T07:21:00;9.27;;;2.45;;
22780;SDS011;11557;50.884;4.322;2022-09-09T07:23:27;10.70;;;2.63;;
22780;SDS011;11557;50.884;4.322;2022-09-09T07:25:53;15.07;;;2.75;;
22780;SDS011;11557;50.884;4.322;2022-09-09T07:28:19;8.63;;;2.60;;
22780;SDS011;11557;50.884;4.322;2022-09-09T07:33:21;9.77;;;2.50;;
22780;SDS011;11557;50.884;4.322;2022-09-09T07:35:47;10.10;;;2.00;;
22780;SDS011;11557;50.884;4.322;2022-09-09T07:38:12;6.82;;;1.90;;
22780;SDS011;11557;50.884;4.322;2022-09-09T07:40:39;13.10;;;3.47;;
22780;SDS011;11557;50.884;4.322;2022-09-09T07:43:05;7.85;;;2.13;;
22780;SDS011;11557;50.884;4.322;2022-09-09T07:45:31;9.65;;;2.22;;
22780;SDS011;11557;50.884;4.322;2022-09-09T07:47:59;10.35;;;2.67;;
22780;SDS011;11557;50.884;4.322;2022-09-09T07:50:24;9.60;;;2.70;;
22780;SDS011;11557;50.884;4.322;2022-09-09T07:52:51;10.48;;;2.88;;
22780;SDS011;11557;50.884;4.322;2022-09-09T07:55:18;10.27;;;2.22;;
22780;SDS011;11557;50.884;4.322;2022-09-09T07:57:45;7.22;;;2.42;;
22780;SDS011;11557;50.884;4.322;2022-09-09T08:00:11;9.88;;;2.55;;
22780;SDS011;11557;50.884;4.322;2022-09-09T08:02:39;7.20;;;2.08;;
22780;SDS011;11557;50.884;4.322;2022-09-09T08:05:05;11.32;;;2.30;;
22780;SDS011;11557;50.884;4.322;2022-09-09T08:07:31;13.88;;;2.50;;
22780;SDS011;11557;50.884;4.322;2022-09-09T08:09:56;6.85;;;2.15;;
22780;SDS011;11557;50.884;4.322;2022-09-09T08:12:22;13.30;;;2.28;;
22780;SDS011;11557;50.884;4.322;2022-09-09T08:14:48;11.15;;;2.13;;
22780;SDS011;11557;50.884;4.322;2022-09-09T08:17:14;16.38;;;2.63;;
22780;SDS011;11557;50.884;4.322;2022-09-09T08:19:39;11.75;;;2.53;;
22780;SDS011;11557;50.884;4.322;2022-09-09T08:22:05;7.30;;;2.05;;
22780;SDS011;11557;50.884;4.322;2022-09-09T08:24:31;12.70;;;2.22;;
22780;SDS011;11557;50.884;4.322;2022-09-09T08:26:56;11.77;;;2.20;;
22780;SDS011;11557;50.884;4.322;2022-09-09T08:29:22;15.27;;;2.33;;
22780;SDS011;11557;50.884;4.322;2022-09-09T08:31:49;10.15;;;2.55;;
22780;SDS011;11557;50.884;4.322;2022-09-09T08:34:19;10.50;;;2.53;;
22780;SDS011;11557;50.884;4.322;2022-09-09T08:36:47;15.43;;;2.75;;
22780;SDS011;11557;50.884;4.322;2022-09-09T08:39:14;13.07;;;2.90;;
22780;SDS011;11557;50.884;4.322;2022-09-09T08:57:56;13.48;;;2.88;;
22780;SDS011;11557;50.884;4.322;2022-09-09T09:00:28;10.05;;;3.10;;
22780;SDS011;11557;50.884;4.322;2022-09-09T09:03:28;12.30;;;2.97;;
22780;SDS011;11557;50.884;4.322;2022-09-09T09:08:33;10.18;;;2.80;;
22780;SDS011;11557;50.884;4.322;2022-09-09T09:11:06;9.35;;;2.67;;
22780;SDS011;11557;50.884;4.322;2022-09-09T09:16:30;11.60;;;3.05;;
22780;SDS011;11557;50.884;4.322;2022-09-09T09:19:01;12.15;;;3.00;;
22780;SDS011;11557;50.884;4.322;2022-09-09T09:24:32;12.35;;;3.40;;
22780;SDS011;11557;50.884;4.322;2022-09-09T09:27:15;9.38;;;2.40;;
22780;SDS011;11557;50.884;4.322;2022-09-09T09:29:55;11.73;;;2.72;;
22780;SDS011;11557;50.884;4.322;2022-09-09T09:32:23;13.05;;;2.72;;
22780;SDS011;11557;50.884;4.322;2022-09-09T09:34:51;8.52;;;2.17;;
22780;SDS011;11557;50.884;4.322;2022-09-09T09:37:29;12.77;;;2.47;;
22780;SDS011;11557;50.884;4.322;2022-09-09T09:40:10;9.20;;;2.10;;
22780;SDS011;11557;50.884;4.322;2022-09-09T09:42:37;9.18;;;2.63;;
22780;SDS011;11557;50.884;4.322;2022-09-09T09:45:26;11.35;;;2.40;;
22780;SDS011;11557;50.884;4.322;2022-09-09T09:48:08;7.90;;;2.33;;
22780;SDS011;11557;50.884;4.322;2022-09-09T09:50:40;10.77;;;2.33;;
22780;SDS011;11557;50.884;4.322;2022-09-09T09:53:23;12.38;;;2.50;;
22780;SDS011;11557;50.884;4.322;2022-09-09T09:55:53;9.45;;;2.20;;
22780;SDS011;11557;50.884;4.322;2022-09-09T09:58:25;8.68;;;2.70;;
22780;SDS011;11557;50.884;4.322;2022-09-09T10:00:59;11.40;;;2.15;;
22780;SDS011;11557;50.884;4.322;2022-09-09T10:03:33;10.63;;;2.67;;
22780;SDS011;11557;50.884;4.322;2022-09-09T10:06:02;9.05;;;2.20;;
22780;SDS011;11557;50.884;4.322;2022-09-09T10:08:28;15.80;;;2.85;;
22780;SDS011;11557;50.884;4.322;2022-09-09T10:11:13;13.38;;;2.58;;
22780;SDS011;11557;50.884;4.322;2022-09-09T10:13:46;9.93;;;2.42;;
22780;SDS011;11557;50.884;4.322;2022-09-09T10:16:33;13.27;;;2.10;;
22780;SDS011;11557;50.884;4.322;2022-09-09T10:19:21;10.52;;;2.15;;
22780;SDS011;11557;50.884;4.322;2022-09-09T10:22:11;11.40;;;2.40;;
22780;SDS011;11557;50.884;4.322;2022-09-09T10:27:27;7.80;;;1.67;;
22780;SDS011;11557;50.884;4.322;2022-09-09T10:32:49;7.40;;;1.70;;
22780;SDS011;11557;50.884;4.322;2022-09-09T10:38:38;7.10;;;1.60;;
22780;SDS011;11557;50.884;4.322;2022-09-09T10:54:24;8.90;;;2.03;;
22780;SDS011;11557;50.884;4.322;2022-09-09T10:57:23;12.57;;;2.30;;
22780;SDS011;11557;50.884;4.322;2022-09-09T11:02:39;10.93;;;2.33;;
22780;SDS011;11557;50.884;4.322;2022-09-09T11:05:10;7.38;;;1.80;;
22780;SDS011;11557;50.884;4.322;2022-09-09T11:07:47;9.23;;;1.95;;
22780;SDS011;11557;50.884;4.322;2022-09-09T11:10:20;7.22;;;1.63;;
22780;SDS011;11557;50.884;4.322;2022-09-09T11:12:57;8.68;;;2.42;;
22780;SDS011;11557;50.884;4.322;2022-09-09T11:15:35;6.93;;;1.90;;
22780;SDS011;11557;50.884;4.322;2022-09-09T11:18:07;6.53;;;1.38;;
22780;SDS011;11557;50.884;4.322;2022-09-09T11:20:38;9.32;;;1.90;;
22780;SDS011;11557;50.884;4.322;2022-09-09T11:23:11;6.22;;;1.40;;
22780;SDS011;11557;50.884;4.322;2022-09-09T11:25:43;8.10;;;1.80;;
22780;SDS011;11557;50.884;4.322;2022-09-09T11:31:07;5.28;;;1.52;;
22780;SDS011;11557;50.884;4.322;2022-09-09T11:33:56;6.10;;;1.40;;
22780;SDS011;11557;50.884;4.322;2022-09-09T11:36:56;8.00;;;1.95;;
22780;SDS011;11557;50.884;4.322;2022-09-09T11:39:51;7.82;;;1.77;;
22780;SDS011;11557;50.884;4.322;2022-09-09T11:42:21;5.53;;;1.30;;
22780;SDS011;11557;50.884;4.322;2022-09-09T11:44:48;6.38;;;1.55;;
22780;SDS011;11557;50.884;4.322;2022-09-09T11:47:28;7.72;;;1.80;;
22780;SDS011;11557;50.884;4.322;2022-09-09T11:50:09;9.70;;;1.40;;
22780;SDS011;11557;50.884;4.322;2022-09-09T11:52:44;11.18;;;2.10;;
22780;SDS011;11557;50.884;4.322;2022-09-09T11:57:38;8.07;;;1.67;;
22780;SDS011;11557;50.884;4.322;2022-09-09T12:00:04;8.23;;;1.83;;
22780;SDS011;11557;50.884;4.322;2022-09-09T12:02:31;5.90;;;2.08;;
22780;SDS011;11557;50.884;4.322;2022-09-09T12:05:02;7.05;;;1.70;;
22780;SDS011;11557;50.884;4.322;2022-09-09T12:12:45;7.28;;;1.90;;
22780;SDS011;11557;50.884;4.322;2022-09-09T12:17:47;10.98;;;1.80;;
22780;SDS011;11557;50.884;4.322;2022-09-09T12:20:17;4.85;;;1.70;;
22780;SDS011;11557;50.884;4.322;2022-09-09T12:28:53;8.50;;;1.85;;
22780;SDS011;11557;50.884;4.322;2022-09-09T12:31:32;8.68;;;1.75;;
22780;SDS011;11557;50.884;4.322;2022-09-09T12:36:48;5.43;;;1.38;;
22780;SDS011;11557;50.884;4.322;2022-09-09T12:39:22;6.50;;;1.80;;
22780;SDS011;11557;50.884;4.322;2022-09-09T12:42:02;4.97;;;1.10;;
22780;SDS011;11557;50.884;4.322;2022-09-09T12:44:29;5.00;;;1.40;;
22780;SDS011;11557;50.884;4.322;2022-09-09T12:46:56;9.73;;;1.30;;
22780;SDS011;11557;50.884;4.322;2022-09-09T12:51:56;10.07;;;1.92;;
22780;SDS011;11557;50.884;4.322;2022-09-09T12:54:22;6.07;;;2.08;;
22780;SDS011;11557;50.884;4.322;2022-09-09T12:56:48;6.07;;;1.10;;
22780;SDS011;11557;50.884;4.322;2022-09-09T12:59:25;5.13;;;1.10;;
22780;SDS011;11557;50.884;4.322;2022-09-09T13:01:59;3.15;;;1.00;;
22780;SDS011;11557;50.884;4.322;2022-09-09T13:04:25;6.70;;;1.15;;
22780;SDS011;11557;50.884;4.322;2022-09-09T13:06:50;3.42;;;1.23;;
22780;SDS011;11557;50.884;4.322;2022-09-09T13:09:17;3.13;;;1.38;;
22780;SDS011;11557;50.884;4.322;2022-09-09T13:11:44;6.40;;;1.33;;
22780;SDS011;11557;50.884;4.322;2022-09-09T13:14:33;7.32;;;1.45;;
22780;SDS011;11557;50.884;4.322;2022-09-09T13:17:03;4.30;;;1.13;;
22780;SDS011;11557;50.884;4.322;2022-09-09T13:19:36;5.25;;;1.20;;
22780;SDS011;11557;50.884;4.322;2022-09-09T13:22:52;5.90;;;1.90;;
22780;SDS011;11557;50.884;4.322;2022-09-09T13:25:17;5.05;;;1.30;;
22780;SDS011;11557;50.884;4.322;2022-09-09T13:28:00;4.93;;;1.40;;
22780;SDS011;11557;50.884;4.322;2022-09-09T13:35:56;3.78;;;1.35;;
22780;SDS011;11557;50.884;4.322;2022-09-09T13:38:24;6.82;;;1.27;;
22780;SDS011;11557;50.884;4.322;2022-09-09T13:40:53;6.82;;;1.30;;
22780;SDS011;11557;50.884;4.322;2022-09-09T13:43:21;3.92;;;1.15;;
22780;SDS011;11557;50.884;4.322;2022-09-09T13:45:58;4.53;;;1.30;;
22780;SDS011;11557;50.884;4.322;2022-09-09T13:48:28;5.35;;;1.75;;
22780;SDS011;11557;50.884;4.322;2022-09-09T13:50:57;3.60;;;1.17;;
22780;SDS011;11557;50.884;4.322;2022-09-09T13:53:29;7.30;;;1.33;;
22780;SDS011;11557;50.884;4.322;2022-09-09T13:55:55;6.03;;;1.10;;
22780;SDS011;11557;50.884;4.322;2022-09-09T13:58:22;1.80;;;0.93;;
22780;SDS011;11557;50.884;4.322;2022-09-09T14:00:50;3.47;;;1.42;;
22780;SDS011;11557;50.884;4.322;2022-09-09T14:03:17;4.20;;;1.20;;
22780;SDS011;11557;50.884;4.322;2022-09-09T14:05:43;4.00;;;1.15;;
22780;SDS011;11557;50.884;4.322;2022-09-09T14:08:10;4.60;;;1.45;;
22780;SDS011;11557;50.884;4.322;2022-09-09T14:10:46;4.28;;;1.02;;
22780;SDS011;11557;50.884;4.322;2022-09-09T14:13:12;4.00;;;1.30;;
22780;SDS011;11557;50.884;4.322;2022-09-09T14:15:38;6.82;;;1.50;;
22780;SDS011;11557;50.884;4.322;2022-09-09T14:18:03;3.30;;;1.17;;
22780;SDS011;11557;50.884;4.322;2022-09-09T14:20:29;5.07;;;1.63;;
22780;SDS011;11557;50.884;4.322;2022-09-09T14:22:55;5.03;;;1.48;;
22780;SDS011;11557;50.884;4.322;2022-09-09T14:25:22;5.65;;;1.10;;
22780;SDS011;11557;50.884;4.322;2022-09-09T14:27:48;5.10;;;1.50;;
22780;SDS011;11557;50.884;4.322;2022-09-09T14:30:16;3.70;;;1.30;;
22780;SDS011;11557;50.884;4.322;2022-09-09T14:32:41;8.35;;;1.58;;
22780;SDS011;11557;50.884;4.322;2022-09-09T14:35:07;6.13;;;1.60;;
22780;SDS011;11557;50.884;4.322;2022-09-09T14:37:33;5.25;;;1.80;;
22780;SDS011;11557;50.884;4.322;2022-09-09T14:39:59;4.82;;;1.58;;
22780;SDS011;11557;50.884;4.322;2022-09-09T14:42:25;5.53;;;1.60;;
22780;SDS011;11557;50.884;4.322;2022-09-09T14:44:51;7.30;;;1.35;;
22780;SDS011;11557;50.884;4.322;2022-09-09T14:47:17;4.90;;;1.30;;
22780;SDS011;11557;50.884;4.322;2022-09-09T14:49:43;6.70;;;2.28;;
22780;SDS011;11557;50.884;4.322;2022-09-09T14:52:09;4.85;;;1.30;;
22780;SDS011;11557;50.884;4.322;2022-09-09T14:54:35;4.38;;;1.30;;
22780;SDS011;11557;50.884;4.322;2022-09-09T14:57:00;6.38;;;1.50;;
22780;SDS011;11557;50.884;4.322;2022-09-09T14:59:26;4.32;;;1.35;;
22780;SDS011;11557;50.884;4.322;2022-09-09T15:01:51;4.78;;;1.25;;
22780;SDS011;11557;50.884;4.322;2022-09-09T15:04:18;7.03;;;1.70;;
22780;SDS011;11557;50.884;4.322;2022-09-09T15:06:45;5.18;;;1.55;;
22780;SDS011;11557;50.884;4.322;2022-09-09T15:09:13;4.20;;;1.48;;
22780;SDS011;11557;50.884;4.322;2022-09-09T15:11:39;3.10;;;1.15;;
22780;SDS011;11557;50.884;4.322;2022-09-09T15:14:05;6.15;;;1.48;;
22780;SDS011;11557;50.884;4.322;2022-09-09T15:16:32;3.70;;;1.20;;
22780;SDS011;11557;50.884;4.322;2022-09-09T15:18:59;5.57;;;1.60;;
22780;SDS011;11557;50.884;4.322;2022-09-09T15:21:26;4.32;;;1.38;;
22780;SDS011;11557;50.884;4.322;2022-09-09T15:23:57;7.15;;;1.23;;
22780;SDS011;11557;50.884;4.322;2022-09-09T15:26:24;4.60;;;1.50;;
22780;SDS011;11557;50.884;4.322;2022-09-09T15:28:50;3.72;;;1.50;;
22780;SDS011;11557;50.884;4.322;2022-09-09T15:31:17;6.18;;;1.55;;
22780;SDS011;11557;50.884;4.322;2022-09-09T15:33:50;5.75;;;1.40;;
22780;SDS011;11557;50.884;4.322;2022-09-09T15:38:46;6.28;;;1.55;;
22780;SDS011;11557;50.884;4.322;2022-09-09T15:41:13;6.28;;;1.80;;
22780;SDS011;11557;50.884;4.322;2022-09-09T15:43:43;8.07;;;2.15;;
22780;SDS011;11557;50.884;4.322;2022-09-09T15:48:42;8.75;;;2.10;;
22780;SDS011;11557;50.884;4.322;2022-09-09T15:51:09;4.80;;;1.55;;
22780;SDS011;11557;50.884;4.322;2022-09-09T15:53:37;6.32;;;1.70;;
22780;SDS011;11557;50.884;4.322;2022-09-09T15:56:04;4.28;;;1.55;;
22780;SDS011;11557;50.884;4.322;2022-09-09T15:58:34;5.95;;;1.30;;
22780;SDS011;11557;50.884;4.322;2022-09-09T16:03:37;4.68;;;1.48;;
22780;SDS011;11557;50.884;4.322;2022-09-09T16:06:04;3.50;;;1.08;;
22780;SDS011;11557;50.884;4.322;2022-09-09T16:08:37;3.40;;;1.35;;
22780;SDS011;11557;50.884;4.322;2022-09-09T16:11:30;4.55;;;1.60;;
22780;SDS011;11557;50.884;4.322;2022-09-09T16:13:58;5.40;;;1.80;;
22780;SDS011;11557;50.884;4.322;2022-09-09T16:16:28;4.07;;;1.65;;
22780;SDS011;11557;50.884;4.322;2022-09-09T16:19:05;4.50;;;1.20;;
22780;SDS011;11557;50.884;4.322;2022-09-09T16:21:34;3.95;;;1.30;;
22780;SDS011;11557;50.884;4.322;2022-09-09T16:24:12;4.88;;;1.20;;
22780;SDS011;11557;50.884;4.322;2022-09-09T16:26:42;5.68;;;1.30;;
22780;SDS011;11557;50.884;4.322;2022-09-09T16:29:12;5.07;;;1.27;;
22780;SDS011;11557;50.884;4.322;2022-09-09T16:31:39;3.70;;;1.30;;
22780;SDS011;11557;50.884;4.322;2022-09-09T16:34:05;5.07;;;1.38;;
22780;SDS011;11557;50.884;4.322;2022-09-09T16:36:32;3.03;;;1.15;;
22780;SDS011;11557;50.884;4.322;2022-09-09T16:39:00;4.28;;;1.02;;
22780;SDS011;11557;50.884;4.322;2022-09-09T16:41:28;4.55;;;1.10;;
22780;SDS011;11557;50.884;4.322;2022-09-09T16:46:21;3.35;;;1.30;;
22780;SDS011;11557;50.884;4.322;2022-09-09T16:48:49;3.60;;;1.10;;
22780;SDS011;11557;50.884;4.322;2022-09-09T16:51:19;3.35;;;1.02;;
22780;SDS011;11557;50.884;4.322;2022-09-09T16:53:48;4.88;;;1.20;;
22780;SDS011;11557;50.884;4.322;2022-09-09T16:56:15;4.00;;;1.05;;
22780;SDS011;11557;50.884;4.322;2022-09-09T16:58:43;4.20;;;0.80;;
22780;SDS011;11557;50.884;4.322;2022-09-09T17:01:14;3.47;;;1.00;;
22780;SDS011;11557;50.884;4.322;2022-09-09T17:03:40;3.58;;;0.82;;
22780;SDS011;11557;50.884;4.322;2022-09-09T17:06:09;6.25;;;1.17;;
22780;SDS011;11557;50.884;4.322;2022-09-09T17:08:37;2.33;;;0.93;;
22780;SDS011;11557;50.884;4.322;2022-09-09T17:11:04;3.90;;;1.25;;
22780;SDS011;11557;50.884;4.322;2022-09-09T17:13:38;4.07;;;1.60;;
22780;SDS011;11557;50.884;4.322;2022-09-09T17:16:04;3.70;;;1.52;;
22780;SDS011;11557;50.884;4.322;2022-09-09T17:18:30;3.90;;;1.40;;
22780;SDS011;11557;50.884;4.322;2022-09-09T17:20:56;5.75;;;1.70;;
22780;SDS011;11557;50.884;4.322;2022-09-09T17:23:28;6.18;;;2.42;;
22780;SDS011;11557;50.884;4.322;2022-09-09T17:25:57;10.20;;;1.60;;
22780;SDS011;11557;50.884;4.322;2022-09-09T17:28:23;5.50;;;1.10;;
22780;SDS011;11557;50.884;4.322;2022-09-09T17:30:52;6.05;;;1.52;;